Time;durP1;ratioP1;P1;durP2;ratioP2;P2;SDS_P1;SDS_P2;PMS_P1;PMS_P2;Temp;Humidity;BMP_temperature;BMP_pressure;BME280_temperature;BME280_humidity;BME280_pressure;Samples;Min_cycle;Max_cycle;Signal;HPM_P1;HPM_P2
2023/12/22 00:00:47;;;;;;;13.70;1.65;;;5.90;99.90;;;;;;5078963;28;20946;-82
2023/12/22 00:03:15;;;;;;;16.17;1.95;;;5.90;99.90;;;;;;5060684;28;20046;-81
2023/12/22 00:05:41;;;;;;;10.75;1.45;;;6.00;99.90;;;;;;5078381;28;20031;-79
2023/12/22 00:08:08;;;;;;;14.05;1.15;;;5.90;99.90;;;;;;5059375;28;20897;-81
2023/12/22 00:10:34;;;;;;;15.07;1.63;;;6.00;99.90;;;;;;5074290;28;20474;-82
2023/12/22 00:13:00;;;;;;;15.27;1.98;;;6.00;99.90;;;;;;5059836;28;20031;-78
2023/12/22 00:15:26;;;;;;;14.63;1.50;;;6.00;99.90;;;;;;5060195;28;20039;-81
2023/12/22 00:17:53;;;;;;;10.30;1.48;;;6.00;99.90;;;;;;5078044;28;20028;-79
2023/12/22 00:20:20;;;;;;;12.40;1.23;;;6.10;99.90;;;;;;5060646;28;20041;-81
2023/12/22 00:22:46;;;;;;;14.18;0.93;;;6.10;99.90;;;;;;5075858;28;20035;-80
2023/12/22 00:25:12;;;;;;;13.52;1.25;;;6.10;99.90;;;;;;5094964;27;20026;-79
2023/12/22 00:27:39;;;;;;;19.65;1.70;;;6.10;99.90;;;;;;5091258;28;20462;-74
2023/12/22 00:30:06;;;;;;;13.40;1.35;;;6.10;99.90;;;;;;5095955;28;20024;-78
2023/12/22 00:32:32;;;;;;;20.50;2.33;;;6.20;99.90;;;;;;5093426;28;20402;-78
2023/12/22 00:34:59;;;;;;;15.25;1.55;;;6.20;99.90;;;;;;5072581;28;20059;-82
2023/12/22 00:37:25;;;;;;;24.95;2.70;;;6.20;99.90;;;;;;5075636;28;20489;-80
2023/12/22 00:39:51;;;;;;;19.65;2.13;;;6.30;99.90;;;;;;5076434;28;20035;-76
2023/12/22 00:42:18;;;;;;;11.55;0.98;;;6.20;99.90;;;;;;5061633;28;20035;-79
2023/12/22 00:44:44;;;;;;;12.15;1.35;;;6.20;99.90;;;;;;5096824;27;20044;-77
2023/12/22 00:47:10;;;;;;;11.07;1.17;;;6.10;99.90;;;;;;5077830;28;20039;-78
2023/12/22 00:49:36;;;;;;;7.43;0.77;;;6.00;99.90;;;;;;5079737;28;20119;-77
2023/12/22 00:52:04;;;;;;;8.60;0.90;;;6.00;99.90;;;;;;5076180;27;20035;-78
2023/12/22 00:54:31;;;;;;;7.65;0.77;;;6.00;99.90;;;;;;5076906;28;20031;-77
2023/12/22 00:56:58;;;;;;;8.38;0.70;;;5.90;99.90;;;;;;5096368;28;20035;-79
2023/12/22 00:59:24;;;;;;;9.85;1.17;;;5.90;99.90;;;;;;5060965;28;20027;-75
2023/12/22 01:01:50;;;;;;;10.02;0.77;;;5.90;99.90;;;;;;5077496;28;20386;-80
2023/12/22 01:04:17;;;;;;;4.40;1.13;;;5.80;99.90;;;;;;5094314;28;20042;-79
2023/12/22 01:06:43;;;;;;;10.18;1.33;;;5.80;99.90;;;;;;5076253;28;20035;-80
2023/12/22 01:09:09;;;;;;;7.43;0.90;;;5.80;99.90;;;;;;5043210;28;20462;-82
2023/12/22 01:11:36;;;;;;;9.93;0.88;;;5.80;99.90;;;;;;5060508;28;20381;-75
2023/12/22 01:14:02;;;;;;;8.38;0.70;;;5.80;99.90;;;;;;5057098;28;20035;-80
2023/12/22 01:16:29;;;;;;;10.35;0.77;;;5.80;99.90;;;;;;5094101;28;20039;-82
2023/12/22 01:18:55;;;;;;;8.82;0.80;;;5.70;99.90;;;;;;5071494;28;20019;-81
2023/12/22 01:21:21;;;;;;;12.50;1.08;;;5.70;99.90;;;;;;5072488;28;20450;-82
2023/12/22 01:23:47;;;;;;;8.02;1.38;;;5.60;99.90;;;;;;5094017;28;20030;-73
2023/12/22 01:26:14;;;;;;;6.80;0.70;;;5.60;99.90;;;;;;5075961;28;20028;-78
2023/12/22 01:28:40;;;;;;;9.40;0.88;;;5.50;99.90;;;;;;5094721;28;20215;-78
2023/12/22 01:31:06;;;;;;;11.30;1.58;;;5.50;99.90;;;;;;5076178;28;20024;-79
2023/12/22 01:33:33;;;;;;;6.13;0.55;;;5.50;99.90;;;;;;5074044;28;20028;-78
2023/12/22 01:35:59;;;;;;;9.23;1.17;;;5.60;99.90;;;;;;5075522;28;20036;-77
2023/12/22 01:38:25;;;;;;;10.15;0.80;;;5.60;99.90;;;;;;5094586;28;20028;-78
2023/12/22 01:40:52;;;;;;;8.77;0.88;;;5.60;99.90;;;;;;5095240;28;20475;-80
2023/12/22 01:43:21;;;;;;;8.60;0.68;;;5.70;99.90;;;;;;5077757;28;20374;-80
2023/12/22 01:45:55;;;;;;;9.30;0.77;;;5.70;99.90;;;;;;5047826;28;20360;-80
2023/12/22 01:48:23;;;;;;;9.15;1.05;;;5.70;99.90;;;;;;5080504;28;20390;-76
2023/12/22 01:50:55;;;;;;;12.02;0.63;;;5.70;99.90;;;;;;5077474;28;20398;-79
2023/12/22 01:53:23;;;;;;;10.93;0.98;;;5.70;99.90;;;;;;5044589;28;20432;-80
2023/12/22 01:55:50;;;;;;;10.10;0.70;;;5.70;99.90;;;;;;5047621;28;20377;-79
2023/12/22 01:58:19;;;;;;;10.98;0.90;;;5.70;99.90;;;;;;5082218;28;20031;-80
2023/12/22 02:00:46;;;;;;;4.97;0.60;;;5.70;99.90;;;;;;5065517;27;20501;-79
2023/12/22 02:03:13;;;;;;;7.32;1.23;;;5.60;99.90;;;;;;5047621;28;20024;-74
2023/12/22 02:05:41;;;;;;;9.40;0.85;;;5.50;99.90;;;;;;5079422;28;21143;-79
2023/12/22 02:08:08;;;;;;;11.23;1.00;;;5.50;99.90;;;;;;5083280;28;20036;-80
2023/12/22 02:10:34;;;;;;;11.68;1.15;;;5.60;99.90;;;;;;5082658;28;20036;-77
2023/12/22 02:13:01;;;;;;;7.25;1.02;;;5.60;99.90;;;;;;5101395;27;20492;-78
2023/12/22 02:15:27;;;;;;;10.95;0.90;;;5.60;99.90;;;;;;5061396;28;20035;-77
2023/12/22 02:18:12;;;;;;;12.70;1.35;;;5.60;99.90;;;;;;5079267;27;20489;-79
2023/12/22 02:20:39;;;;;;;14.63;0.80;;;5.50;99.90;;;;;;5061007;28;20046;-73
2023/12/22 02:23:05;;;;;;;15.55;2.17;;;5.50;99.90;;;;;;5079471;28;20046;-79
2023/12/22 02:25:32;;;;;;;9.38;1.38;;;5.50;99.90;;;;;;5065926;28;20090;-77
2023/12/22 02:28:03;;;;;;;8.25;1.05;;;5.60;99.90;;;;;;5081910;28;20027;-77
2023/12/22 02:30:38;;;;;;;13.25;1.25;;;5.60;99.90;;;;;;5098697;27;20035;-81
2023/12/22 02:33:06;;;;;;;12.02;0.93;;;5.60;99.90;;;;;;5064201;28;20048;-80
2023/12/22 02:35:36;;;;;;;11.55;1.35;;;5.50;99.90;;;;;;5049270;27;20051;-79
2023/12/22 02:38:05;;;;;;;19.38;1.33;;;5.50;99.90;;;;;;5064229;28;20394;-75
2023/12/22 02:40:31;;;;;;;16.00;1.88;;;5.50;99.90;;;;;;5081008;28;20036;-81
2023/12/22 02:42:58;;;;;;;12.77;0.95;;;5.60;99.90;;;;;;5061252;28;20036;-78
2023/12/22 02:45:24;;;;;;;15.48;1.15;;;5.60;99.90;;;;;;5046327;28;20031;-80
2023/12/22 02:47:51;;;;;;;7.63;1.13;;;5.60;99.90;;;;;;5046757;28;20032;-79
2023/12/22 02:50:17;;;;;;;12.68;1.33;;;5.70;99.90;;;;;;5081131;28;20031;-77
2023/12/22 02:52:43;;;;;;;21.45;2.13;;;5.70;99.90;;;;;;5097799;27;20035;-81
2023/12/22 02:55:10;;;;;;;9.07;1.27;;;5.80;99.90;;;;;;5079178;28;20023;-78
2023/12/22 02:57:36;;;;;;;12.27;1.63;;;5.80;99.90;;;;;;5080165;28;20039;-79
2023/12/22 03:00:03;;;;;;;21.42;1.95;;;5.80;99.90;;;;;;5064160;28;20495;-81
2023/12/22 03:02:29;;;;;;;11.20;1.25;;;5.80;99.90;;;;;;5067434;28;20035;-79
2023/12/22 03:04:55;;;;;;;10.18;1.23;;;5.80;99.90;;;;;;5064380;28;20913;-78
2023/12/22 03:07:21;;;;;;;17.52;1.48;;;5.80;99.90;;;;;;5079196;28;20024;-79
2023/12/22 03:09:48;;;;;;;18.38;1.70;;;5.80;99.90;;;;;;5079390;28;20030;-80
2023/12/22 03:12:14;;;;;;;19.73;2.67;;;5.80;99.90;;;;;;5080243;28;20386;-77
2023/12/22 03:14:40;;;;;;;14.43;2.20;;;5.90;99.90;;;;;;5098129;27;20030;-78
2023/12/22 03:17:07;;;;;;;19.88;1.75;;;5.90;99.90;;;;;;5080560;27;20043;-78
2023/12/22 03:19:33;;;;;;;25.38;1.88;;;5.90;99.90;;;;;;5078543;28;20027;-80
2023/12/22 03:22:01;;;;;;;16.90;1.25;;;5.90;99.90;;;;;;5079570;28;20032;-83
2023/12/22 03:24:28;;;;;;;9.93;1.00;;;5.80;99.90;;;;;;5080614;28;20046;-82
2023/12/22 03:26:54;;;;;;;7.45;0.65;;;5.60;99.90;;;;;;5064872;27;20023;-86
2023/12/22 03:29:21;;;;;;;9.52;0.75;;;5.40;99.90;;;;;;5065899;28;20024;-85
2023/12/22 03:31:47;;;;;;;14.77;0.95;;;5.20;99.90;;;;;;5080718;28;20027;-85
2023/12/22 03:34:14;;;;;;;10.05;0.77;;;5.10;99.90;;;;;;5084293;27;20023;-82
2023/12/22 03:36:40;;;;;;;8.10;0.68;;;4.90;99.90;;;;;;5080719;28;20035;-84
2023/12/22 03:39:06;;;;;;;5.15;0.68;;;4.90;99.90;;;;;;5064450;28;20275;-85
2023/12/22 03:41:34;;;;;;;5.82;0.60;;;4.80;99.90;;;;;;5063307;28;20390;-82
2023/12/22 03:44:00;;;;;;;7.30;0.50;;;4.80;99.90;;;;;;5078439;28;20478;-82
2023/12/22 03:46:26;;;;;;;7.68;0.60;;;4.80;99.90;;;;;;5064313;28;20031;-81
2023/12/22 03:48:53;;;;;;;12.40;0.90;;;4.80;99.90;;;;;;5099799;27;20043;-83
2023/12/22 03:51:19;;;;;;;8.93;0.70;;;4.80;99.90;;;;;;5079462;28;20023;-86
2023/12/22 03:53:45;;;;;;;8.80;0.60;;;4.70;99.90;;;;;;5067949;28;20283;-85
2023/12/22 03:56:12;;;;;;;4.88;0.60;;;4.80;99.90;;;;;;5079526;28;20473;-79
2023/12/22 03:58:38;;;;;;;8.20;0.80;;;4.70;99.90;;;;;;5079836;28;20039;-80
2023/12/22 04:01:07;;;;;;;8.63;0.80;;;4.70;99.90;;;;;;5064542;27;20408;-82
2023/12/22 04:03:34;;;;;;;7.82;0.77;;;4.80;99.90;;;;;;5079346;28;20339;-84
2023/12/22 04:06:04;;;;;;;8.18;0.82;;;4.80;99.90;;;;;;5077312;28;20039;-84
2023/12/22 04:08:30;;;;;;;7.50;0.85;;;4.80;99.90;;;;;;5077023;28;20039;-83
2023/12/22 04:10:57;;;;;;;12.02;0.82;;;4.80;99.90;;;;;;5062164;28;20769;-79
2023/12/22 04:13:23;;;;;;;11.55;0.80;;;4.90;99.90;;;;;;5097868;28;20032;-80
2023/12/22 04:15:49;;;;;;;6.47;0.95;;;4.80;99.90;;;;;;5059259;28;20316;-78
2023/12/22 04:18:16;;;;;;;9.90;0.73;;;4.80;99.90;;;;;;5080424;27;20098;-75
2023/12/22 04:20:42;;;;;;;10.27;1.35;;;4.80;99.90;;;;;;5094954;27;20024;-78
2023/12/22 04:23:08;;;;;;;6.45;0.60;;;4.80;99.90;;;;;;5096974;27;20042;-79
2023/12/22 04:25:35;;;;;;;12.07;1.20;;;4.90;99.90;;;;;;5077681;28;20028;-79
2023/12/22 04:28:01;;;;;;;7.45;0.90;;;4.90;99.90;;;;;;5079334;28;20027;-80
2023/12/22 04:30:28;;;;;;;10.88;0.60;;;4.90;99.90;;;;;;5061142;28;20024;-78
2023/12/22 04:32:56;;;;;;;12.07;0.93;;;5.00;99.90;;;;;;5063466;28;20040;-79
2023/12/22 04:35:22;;;;;;;6.68;1.00;;;5.10;99.90;;;;;;5058383;28;20682;-79
2023/12/22 04:37:48;;;;;;;9.07;0.93;;;5.10;99.90;;;;;;5048286;28;20048;-75
2023/12/22 04:40:15;;;;;;;17.33;1.05;;;5.10;99.90;;;;;;5079446;28;20036;-78
2023/12/22 04:42:41;;;;;;;12.00;1.13;;;5.20;99.90;;;;;;5078656;28;20040;-78
2023/12/22 04:45:08;;;;;;;13.68;1.25;;;5.20;99.90;;;;;;5067750;28;20450;-78
2023/12/22 04:47:34;;;;;;;18.25;2.47;;;5.20;99.90;;;;;;5066312;27;20028;-78
2023/12/22 04:50:01;;;;;;;15.52;1.55;;;5.20;99.90;;;;;;5061941;28;20389;-75
2023/12/22 04:52:28;;;;;;;21.33;2.25;;;5.30;99.90;;;;;;5063256;28;20039;-75
2023/12/22 04:54:55;;;;;;;16.88;1.55;;;5.40;99.90;;;;;;5077349;28;20035;-77
2023/12/22 04:57:22;;;;;;;17.70;2.50;;;5.40;99.90;;;;;;5061838;28;20039;-77
2023/12/22 04:59:48;;;;;;;27.40;2.65;;;5.50;99.90;;;;;;5079181;28;20031;-77
2023/12/22 05:02:14;;;;;;;19.55;1.73;;;5.50;99.90;;;;;;5062624;27;20039;-78
2023/12/22 05:04:40;;;;;;;27.45;2.30;;;5.60;99.90;;;;;;5078847;28;20031;-77
2023/12/22 05:07:07;;;;;;;28.67;2.60;;;5.60;99.90;;;;;;5058294;28;20024;-78
2023/12/22 05:09:34;;;;;;;29.90;2.75;;;5.70;99.90;;;;;;5078086;28;20040;-78
2023/12/22 05:12:00;;;;;;;23.73;2.25;;;5.60;99.90;;;;;;5078629;28;20035;-77
2023/12/22 05:14:26;;;;;;;15.07;1.23;;;5.70;99.90;;;;;;5078217;28;20035;-77
2023/12/22 05:16:55;;;;;;;18.85;1.63;;;5.70;99.90;;;;;;5077008;28;20035;-77
2023/12/22 05:19:21;;;;;;;21.58;1.77;;;5.70;99.90;;;;;;5098812;27;20031;-77
2023/12/22 05:21:49;;;;;;;23.73;1.65;;;5.70;99.90;;;;;;5045735;28;20032;-77
2023/12/22 05:24:15;;;;;;;13.63;2.55;;;5.70;99.90;;;;;;5060554;28;20474;-78
2023/12/22 05:26:42;;;;;;;16.33;2.47;;;5.70;99.90;;;;;;5061311;28;20043;-74
2023/12/22 05:29:09;;;;;;;22.60;2.00;;;5.70;99.90;;;;;;5076224;28;20023;-79
2023/12/22 05:31:35;;;;;;;22.88;2.40;;;5.70;99.90;;;;;;5060915;28;20020;-77
2023/12/22 05:34:01;;;;;;;23.50;2.22;;;5.70;99.90;;;;;;5078607;28;20035;-75
2023/12/22 05:36:27;;;;;;;9.80;1.30;;;5.60;99.90;;;;;;5077929;28;20016;-79
2023/12/22 05:38:54;;;;;;;14.70;1.65;;;5.60;99.90;;;;;;5076065;28;20039;-77
2023/12/22 05:41:21;;;;;;;14.00;1.27;;;5.50;99.90;;;;;;5079143;28;20513;-76
2023/12/22 05:43:47;;;;;;;16.60;1.42;;;5.60;99.90;;;;;;5060834;28;20031;-76
2023/12/22 05:46:13;;;;;;;11.05;1.02;;;5.60;99.90;;;;;;5059499;28;20485;-80
2023/12/22 05:48:39;;;;;;;10.43;1.20;;;5.60;99.90;;;;;;5094840;28;20027;-80
2023/12/22 05:51:13;;;;;;;14.02;1.20;;;5.60;99.90;;;;;;5077386;28;20020;-76
2023/12/22 05:53:40;;;;;;;12.68;0.95;;;5.70;99.90;;;;;;5077829;28;20047;-79
2023/12/22 05:56:18;;;;;;;9.68;1.05;;;5.70;99.90;;;;;;5077982;28;20039;-79
2023/12/22 05:58:45;;;;;;;13.32;1.20;;;5.70;99.90;;;;;;5078636;28;20031;-74
2023/12/22 06:01:18;;;;;;;13.73;1.13;;;5.70;99.90;;;;;;5096393;28;20042;-79
2023/12/22 06:03:48;;;;;;;12.90;1.13;;;5.70;99.90;;;;;;5096764;28;20030;-79
2023/12/22 06:06:14;;;;;;;18.83;1.60;;;5.70;99.90;;;;;;5057233;28;20386;-79
2023/12/22 06:08:41;;;;;;;24.85;1.80;;;5.80;99.90;;;;;;5078339;28;20030;-79
2023/12/22 06:11:07;;;;;;;16.13;2.13;;;5.70;99.90;;;;;;5079329;28;20023;-77
2023/12/22 06:13:33;;;;;;;16.60;2.45;;;5.70;99.90;;;;;;5095310;28;20035;-79
2023/12/22 06:16:00;;;;;;;19.70;2.10;;;5.80;99.90;;;;;;5078151;28;20035;-78
2023/12/22 06:18:26;;;;;;;15.93;2.13;;;5.80;99.90;;;;;;5057952;28;20529;-77
2023/12/22 06:20:52;;;;;;;15.90;1.90;;;5.80;99.90;;;;;;5057879;28;20043;-79
2023/12/22 06:23:19;;;;;;;18.90;2.45;;;5.80;99.90;;;;;;5075893;28;20039;-78
2023/12/22 06:25:46;;;;;;;17.58;1.77;;;5.80;99.90;;;;;;5057293;28;20036;-78
2023/12/22 06:28:13;;;;;;;16.17;1.73;;;5.90;99.90;;;;;;5097784;27;20031;-78
2023/12/22 06:30:39;;;;;;;21.25;2.47;;;5.90;99.90;;;;;;5081287;27;20393;-78
2023/12/22 06:33:05;;;;;;;27.17;3.05;;;5.90;99.90;;;;;;5101599;27;20023;-78
2023/12/22 06:35:33;;;;;;;22.38;2.92;;;5.90;99.90;;;;;;5062511;28;20047;-78
2023/12/22 06:38:03;;;;;;;21.25;2.00;;;6.00;99.90;;;;;;5084619;27;20440;-79
2023/12/22 06:40:29;;;;;;;14.48;2.75;;;6.00;99.90;;;;;;5083410;28;20399;-77
2023/12/22 06:42:56;;;;;;;22.38;2.53;;;6.00;99.90;;;;;;5084949;27;20040;-77
2023/12/22 06:45:22;;;;;;;16.13;2.22;;;6.10;99.90;;;;;;5062551;28;20050;-79
2023/12/22 06:47:48;;;;;;;25.25;3.38;;;6.10;99.90;;;;;;5065233;28;20030;-79
2023/12/22 06:50:15;;;;;;;29.90;2.70;;;6.20;99.90;;;;;;5082060;27;20042;-73
2023/12/22 06:52:41;;;;;;;24.33;2.58;;;6.30;99.90;;;;;;5081899;28;20043;-76
2023/12/22 06:55:07;;;;;;;11.38;1.50;;;6.40;99.90;;;;;;5082524;28;20047;-78
2023/12/22 06:57:34;;;;;;;17.50;2.13;;;6.50;99.90;;;;;;5100480;27;20031;-78
2023/12/22 07:00:00;;;;;;;20.88;2.08;;;6.50;99.90;;;;;;5063427;28;20028;-78
2023/12/22 07:02:26;;;;;;;15.90;1.90;;;6.60;99.90;;;;;;5082119;28;20031;-76
2023/12/22 07:05:09;;;;;;;25.27;2.28;;;6.60;99.90;;;;;;5080399;27;20026;-78
2023/12/22 07:07:36;;;;;;;21.10;2.53;;;6.70;99.90;;;;;;5080468;28;20027;-76
2023/12/22 07:10:03;;;;;;;19.98;2.17;;;6.70;99.90;;;;;;5063138;28;20035;-77
2023/12/22 07:12:29;;;;;;;25.77;2.70;;;6.70;99.90;;;;;;5079352;27;20019;-77
2023/12/22 07:14:55;;;;;;;25.25;2.38;;;6.80;99.90;;;;;;5080225;27;20043;-78
2023/12/22 07:17:22;;;;;;;21.45;2.00;;;6.80;99.90;;;;;;5083701;27;20032;-72
2023/12/22 07:19:51;;;;;;;20.83;2.58;;;6.90;99.90;;;;;;5063777;28;20035;-78
2023/12/22 07:22:18;;;;;;;14.27;2.22;;;6.90;99.90;;;;;;5065450;27;20031;-73
2023/12/22 07:24:46;;;;;;;16.02;2.10;;;6.90;99.90;;;;;;5083367;28;20032;-77
2023/12/22 07:27:12;;;;;;;20.83;2.72;;;6.90;99.90;;;;;;5062802;28;20042;-79
2023/12/22 07:29:39;;;;;;;14.98;2.17;;;7.00;99.90;;;;;;5098648;27;20020;-78
2023/12/22 07:32:05;;;;;;;17.33;2.08;;;7.00;99.90;;;;;;5080276;27;20024;-78
2023/12/22 07:34:32;;;;;;;23.90;3.42;;;7.00;99.90;;;;;;5080057;28;20040;-77
2023/12/22 07:36:58;;;;;;;31.10;3.60;;;7.00;99.90;;;;;;5060794;28;20035;-76
2023/12/22 07:39:24;;;;;;;17.00;2.85;;;7.10;99.90;;;;;;5078899;28;20370;-79
2023/12/22 07:41:51;;;;;;;22.63;3.53;;;7.10;99.90;;;;;;5078914;28;20035;-79
2023/12/22 07:44:17;;;;;;;33.65;3.88;;;7.10;99.90;;;;;;5064002;28;20020;-79
2023/12/22 07:46:43;;;;;;;32.17;3.78;;;7.20;99.90;;;;;;5062115;28;20275;-76
2023/12/22 07:49:10;;;;;;;31.75;4.45;;;7.20;99.90;;;;;;5098800;27;20502;-79
2023/12/22 07:51:36;;;;;;;25.20;3.28;;;7.20;99.90;;;;;;5042250;28;20027;-79
2023/12/22 07:54:03;;;;;;;26.70;2.88;;;7.20;99.90;;;;;;5062921;28;20023;-79
2023/12/22 07:56:29;;;;;;;28.70;4.20;;;7.30;99.90;;;;;;5096891;27;20035;-81
2023/12/22 07:58:55;;;;;;;28.10;3.25;;;7.30;99.90;;;;;;5081380;28;20035;-79
2023/12/22 08:01:21;;;;;;;31.27;3.67;;;7.30;99.90;;;;;;5079310;28;20081;-80
2023/12/22 08:03:48;;;;;;;17.42;3.20;;;7.30;99.90;;;;;;5050516;28;20031;-77
2023/12/22 08:06:14;;;;;;;26.65;4.00;;;7.30;99.90;;;;;;5080409;27;20024;-78
2023/12/22 08:08:40;;;;;;;25.30;2.88;;;7.40;99.90;;;;;;5078900;28;20035;-79
2023/12/22 08:11:08;;;;;;;38.28;3.95;;;7.40;99.90;;;;;;5062981;28;20032;-80
2023/12/22 08:13:34;;;;;;;24.48;3.40;;;7.40;99.90;;;;;;5096957;28;20085;-80
2023/12/22 08:16:00;;;;;;;34.13;3.88;;;7.50;99.90;;;;;;5061509;28;20028;-77
2023/12/22 08:18:27;;;;;;;35.78;5.00;;;7.50;99.90;;;;;;5062397;28;20038;-76
2023/12/22 08:20:53;;;;;;;35.50;5.22;;;7.50;99.90;;;;;;5060861;28;20580;-80
2023/12/22 08:23:21;;;;;;;26.65;5.15;;;7.50;99.90;;;;;;5097936;27;20038;-81
2023/12/22 08:25:47;;;;;;;18.77;2.50;;;7.50;99.90;;;;;;5093328;28;20039;-81
2023/12/22 08:28:14;;;;;;;24.10;2.30;;;7.40;99.90;;;;;;5046116;28;20039;-78
2023/12/22 08:30:40;;;;;;;20.00;2.30;;;7.30;99.90;;;;;;5094281;28;20050;-82
2023/12/22 08:33:07;;;;;;;20.98;2.60;;;7.20;99.90;;;;;;5079184;28;20244;-80
2023/12/22 08:35:33;;;;;;;12.48;1.92;;;7.10;99.90;;;;;;5062101;28;20047;-81
2023/12/22 08:37:59;;;;;;;18.45;1.98;;;7.10;99.90;;;;;;5096580;28;20411;-81
2023/12/22 08:40:26;;;;;;;18.02;2.35;;;7.10;99.90;;;;;;5062871;27;20352;-79
2023/12/22 08:42:59;;;;;;;20.33;2.38;;;7.10;99.90;;;;;;5076830;28;20042;-80
2023/12/22 08:45:30;;;;;;;15.40;1.83;;;7.10;99.90;;;;;;5096153;27;20042;-82
2023/12/22 08:47:57;;;;;;;14.40;1.77;;;7.10;99.90;;;;;;5096629;28;20390;-81
2023/12/22 08:50:24;;;;;;;22.52;2.88;;;7.20;99.90;;;;;;5061838;28;20555;-80
2023/12/22 08:52:50;;;;;;;14.65;1.77;;;7.20;99.90;;;;;;5062115;28;20036;-75
2023/12/22 08:55:17;;;;;;;16.30;2.22;;;7.20;99.90;;;;;;5060813;28;20031;-78
2023/12/22 08:57:43;;;;;;;24.25;3.10;;;7.20;99.90;;;;;;5061561;27;20023;-79
2023/12/22 09:00:10;;;;;;;21.10;2.45;;;7.30;99.90;;;;;;5080012;28;20488;-79
2023/12/22 09:02:36;;;;;;;22.10;2.50;;;7.30;99.90;;;;;;5058593;28;20031;-82
2023/12/22 09:05:03;;;;;;;31.17;4.82;;;7.30;99.90;;;;;;5065264;28;20467;-82
2023/12/22 09:07:29;;;;;;;29.48;4.90;;;7.40;99.90;;;;;;5080018;28;20034;-84
2023/12/22 09:09:55;;;;;;;30.88;4.95;;;7.40;99.90;;;;;;5076196;27;20028;-82
2023/12/22 09:12:22;;;;;;;24.92;3.40;;;7.50;99.90;;;;;;5059490;28;20031;-82
2023/12/22 09:14:50;;;;;;;28.23;4.05;;;7.50;99.90;;;;;;5076453;28;20031;-80
2023/12/22 09:17:16;;;;;;;28.30;2.95;;;7.60;99.90;;;;;;5059711;28;20036;-78
2023/12/22 09:19:43;;;;;;;22.85;4.13;;;7.60;99.90;;;;;;5059816;28;20019;-83
2023/12/22 09:22:09;;;;;;;20.77;3.05;;;7.60;99.90;;;;;;5092589;28;20024;-73
2023/12/22 09:24:36;;;;;;;23.17;3.65;;;7.70;99.90;;;;;;5051624;28;20103;-80
2023/12/22 09:27:04;;;;;;;30.08;4.22;;;7.70;99.90;;;;;;5068772;28;20055;-81
2023/12/22 09:29:35;;;;;;;22.27;2.75;;;7.70;99.90;;;;;;5067941;28;20032;-79
2023/12/22 09:32:02;;;;;;;15.98;2.85;;;7.70;99.90;;;;;;5086635;27;20055;-77
2023/12/22 09:34:28;;;;;;;20.17;2.80;;;7.80;99.90;;;;;;5071499;28;20597;-81
2023/12/22 09:36:55;;;;;;;22.23;3.50;;;7.80;99.90;;;;;;5038725;28;20031;-81
2023/12/22 09:39:21;;;;;;;21.60;2.90;;;7.80;99.90;;;;;;5071934;28;20047;-79
2023/12/22 09:41:50;;;;;;;23.27;4.13;;;7.90;99.90;;;;;;5072978;28;20044;-79
2023/12/22 09:44:20;;;;;;;21.17;3.30;;;7.90;99.90;;;;;;5071003;28;20366;-80
2023/12/22 09:46:49;;;;;;;12.95;2.60;;;7.90;99.90;;;;;;5083462;28;20035;-80
2023/12/22 09:49:18;;;;;;;21.63;3.80;;;8.00;99.90;;;;;;5068540;28;20050;-77
2023/12/22 09:51:45;;;;;;;16.55;2.88;;;8.00;99.90;;;;;;5039418;28;20027;-83
2023/12/22 09:54:13;;;;;;;20.67;2.38;;;8.10;99.90;;;;;;5071792;28;20351;-74
2023/12/22 09:56:42;;;;;;;21.05;3.35;;;8.10;99.90;;;;;;5053131;28;20046;-80
2023/12/22 09:59:12;;;;;;;12.52;2.08;;;8.10;99.90;;;;;;5054634;28;20036;-79
2023/12/22 10:01:46;;;;;;;12.73;1.80;;;8.10;99.90;;;;;;5091359;28;20039;-84
2023/12/22 10:04:14;;;;;;;13.60;1.67;;;8.10;99.90;;;;;;5081220;27;20027;-84
2023/12/22 10:06:41;;;;;;;12.75;1.73;;;8.10;99.90;;;;;;5064685;28;20024;-85
2023/12/22 10:09:08;;;;;;;7.85;1.10;;;8.00;99.90;;;;;;5078520;28;20047;-80
2023/12/22 10:11:38;;;;;;;11.10;1.23;;;8.00;99.90;;;;;;5046415;28;20043;-80
2023/12/22 10:14:06;;;;;;;6.38;0.60;;;8.00;99.90;;;;;;5101205;27;20044;-79
2023/12/22 10:16:33;;;;;;;5.10;1.02;;;8.00;99.90;;;;;;5077661;28;20599;-77
2023/12/22 10:19:00;;;;;;;8.25;0.95;;;7.90;99.90;;;;;;5068946;28;20511;-74
2023/12/22 10:21:26;;;;;;;3.72;0.70;;;7.90;99.90;;;;;;5075587;28;20050;-78
2023/12/22 10:23:52;;;;;;;4.50;0.73;;;7.90;99.90;;;;;;5055114;27;20043;-81
2023/12/22 10:26:19;;;;;;;4.05;0.60;;;7.90;99.90;;;;;;5057621;27;20445;-84
2023/12/22 10:28:48;;;;;;;3.20;0.70;;;7.90;99.90;;;;;;5046034;28;20476;-79
2023/12/22 10:31:15;;;;;;;3.90;0.77;;;7.90;99.90;;;;;;5092029;28;20043;-82
2023/12/22 10:33:43;;;;;;;4.10;0.95;;;7.90;99.90;;;;;;5074196;28;20023;-83
2023/12/22 10:36:10;;;;;;;6.32;1.42;;;7.90;99.90;;;;;;5073885;27;20478;-78
2023/12/22 10:38:36;;;;;;;8.95;1.10;;;8.00;99.90;;;;;;5075019;28;20032;-81
2023/12/22 10:41:05;;;;;;;8.48;1.42;;;8.10;99.90;;;;;;5086296;27;20035;-80
2023/12/22 10:43:38;;;;;;;12.85;1.40;;;8.10;99.90;;;;;;5055560;27;20054;-78
2023/12/22 10:46:04;;;;;;;8.52;1.40;;;8.20;99.90;;;;;;5060862;27;20413;-79
2023/12/22 10:48:31;;;;;;;16.15;1.40;;;8.30;99.90;;;;;;5075699;27;20466;-80
2023/12/22 10:50:57;;;;;;;10.52;1.98;;;8.40;99.90;;;;;;5096411;27;20043;-78
2023/12/22 10:53:24;;;;;;;10.95;1.83;;;8.40;99.90;;;;;;5076345;28;20035;-76
2023/12/22 10:55:51;;;;;;;17.67;2.53;;;8.50;99.90;;;;;;5058322;27;20034;-80
2023/12/22 10:58:18;;;;;;;10.45;1.75;;;8.60;99.90;;;;;;5044806;27;20363;-80
2023/12/22 11:00:50;;;;;;;10.50;1.60;;;8.60;99.90;;;;;;5094722;27;20024;-77
2023/12/22 11:03:21;;;;;;;11.60;1.75;;;8.70;99.90;;;;;;5073895;27;20524;-82
2023/12/22 11:05:48;;;;;;;6.43;1.38;;;8.70;99.90;;;;;;5058401;28;20040;-79
2023/12/22 11:08:17;;;;;;;5.97;1.40;;;8.80;99.90;;;;;;5073636;28;20031;-79
2023/12/22 11:10:48;;;;;;;13.75;2.10;;;8.80;99.90;;;;;;5057148;28;20031;-77
2023/12/22 11:13:16;;;;;;;11.07;2.17;;;8.80;99.90;;;;;;5074433;28;20035;-81
2023/12/22 11:15:43;;;;;;;10.23;1.73;;;8.80;99.90;;;;;;5092183;27;20020;-83
2023/12/22 11:18:10;;;;;;;9.38;2.75;;;8.80;99.90;;;;;;5061055;27;20043;-82
2023/12/22 11:20:38;;;;;;;10.75;1.20;;;8.80;99.90;;;;;;5077933;27;20039;-78
2023/12/22 11:23:06;;;;;;;8.68;1.35;;;8.80;99.90;;;;;;5061589;27;20023;-79
2023/12/22 11:25:34;;;;;;;6.68;1.45;;;8.70;99.90;;;;;;5095571;27;20039;-77
2023/12/22 11:28:03;;;;;;;6.82;1.20;;;8.70;99.90;;;;;;5079760;27;20031;-78
2023/12/22 11:30:31;;;;;;;15.80;3.00;;;8.80;99.90;;;;;;5074998;28;20504;-81
2023/12/22 11:32:59;;;;;;;13.98;2.08;;;8.70;99.90;;;;;;5044747;28;20036;-82
2023/12/22 11:35:27;;;;;;;7.55;2.10;;;8.80;99.90;;;;;;5083289;28;20039;-79
2023/12/22 11:37:54;;;;;;;10.85;1.92;;;8.80;99.90;;;;;;5073560;27;20111;-81
2023/12/22 11:40:21;;;;;;;7.18;1.60;;;8.80;99.90;;;;;;5074489;28;20546;-82
2023/12/22 11:42:50;;;;;;;14.60;2.15;;;8.90;99.90;;;;;;5075587;27;20031;-79
2023/12/22 11:45:18;;;;;;;12.50;1.90;;;8.90;99.90;;;;;;5081998;28;20473;-79
2023/12/22 11:47:46;;;;;;;11.18;1.45;;;9.00;99.90;;;;;;5075909;27;20494;-83
2023/12/22 11:50:27;;;;;;;10.73;1.70;;;9.00;99.90;;;;;;5070589;28;20043;-75
2023/12/22 11:52:53;;;;;;;8.10;1.35;;;9.10;99.90;;;;;;5090638;27;20031;-80
2023/12/22 11:55:59;;;;;;;15.70;2.08;;;9.10;99.90;;;;;;5071563;27;20020;-83
2023/12/22 11:58:52;;;;;;;8.18;1.52;;;9.20;99.90;;;;;;5072133;28;20331;-81
2023/12/22 12:01:19;;;;;;;7.80;1.65;;;9.10;99.90;;;;;;5075040;28;20042;-80
2023/12/22 12:03:53;;;;;;;15.25;1.92;;;9.10;99.90;;;;;;5075171;27;20040;-80
2023/12/22 12:06:25;;;;;;;11.93;1.88;;;9.00;99.90;;;;;;5072731;28;20032;-83
2023/12/22 12:08:59;;;;;;;11.52;1.95;;;9.00;99.90;;;;;;5074675;28;20508;-78
2023/12/22 12:11:59;;;;;;;14.65;2.33;;;9.00;99.90;;;;;;5073047;27;20038;-80
2023/12/22 12:14:35;;;;;;;8.57;1.25;;;9.00;99.90;;;;;;5072426;28;20042;-82
2023/12/22 12:17:07;;;;;;;8.38;1.42;;;9.00;99.90;;;;;;5056400;28;20390;-82
2023/12/22 12:19:38;;;;;;;11.27;0.98;;;8.90;99.90;;;;;;5073634;27;20090;-86
2023/12/22 12:22:05;;;;;;;11.30;1.10;;;8.90;99.90;;;;;;5075292;27;20504;-84
2023/12/22 12:24:32;;;;;;;8.35;0.98;;;8.80;99.90;;;;;;5074423;27;20039;-80
2023/12/22 12:26:58;;;;;;;10.60;0.80;;;8.80;99.90;;;;;;5071225;27;20047;-80
2023/12/22 12:29:25;;;;;;;10.30;1.52;;;8.90;99.90;;;;;;5074654;27;20498;-77
2023/12/22 12:31:51;;;;;;;14.57;1.77;;;8.90;99.90;;;;;;5054665;27;20908;-81
2023/12/22 12:34:20;;;;;;;7.05;1.27;;;8.90;99.90;;;;;;5075159;27;20311;-84
2023/12/22 12:36:48;;;;;;;12.82;2.15;;;8.90;99.90;;;;;;5057998;27;20040;-79
2023/12/22 12:39:15;;;;;;;12.10;2.13;;;9.00;99.90;;;;;;5056381;28;20506;-78
2023/12/22 12:41:44;;;;;;;11.15;1.40;;;9.00;99.90;;;;;;5074312;28;20031;-82
2023/12/22 12:44:11;;;;;;;12.07;1.45;;;8.90;99.90;;;;;;5058528;28;20426;-82
2023/12/22 12:46:39;;;;;;;12.40;1.25;;;8.90;99.90;;;;;;5071215;28;20031;-82
2023/12/22 12:49:11;;;;;;;9.98;1.33;;;8.90;99.90;;;;;;5072278;28;20897;-82
2023/12/22 12:51:46;;;;;;;14.65;1.67;;;9.00;99.90;;;;;;5070947;28;20054;-81